Flight Track Log - Related Links

Times and Time Zones

All times are in EDT time to prevent confusion due to time zone crossing. See the GJS3636 flight status page for this flight to view local times or setup timezone preferences in your user account.

Time Position Orientation Groundspeed Altitude Reporting Facility
EDT Latitude Longitude Course Direction KTS MPH feet Rate Location/Type
Sun 05:34:03 PM 43.1092 -76.0864 51° Northeast 143 165 1,300  Level Boston Center
Sun 05:35:28 PM 43.1531 -76.0122 51° Northeast 243 280 4,000 1,987 Climbing Boston Center
Sun 05:36:34 PM 43.2025 -76.0978 308° West 293 337 6,300 2,143 Climbing Boston Center
Sun 05:38:58 PM 43.2042 -76.3533 271° West 302 348 11,500 2,147 Climbing Cleveland Center
Sun 05:39:58 PM 43.2067 -76.4842 272° West 328 377 13,600 2,000 Climbing Cleveland Center
Sun 05:40:58 PM 43.2300 -76.6167 284° West 350 403 15,500 1,700 Climbing Cleveland Center
Sun 05:41:58 PM 43.2536 -76.7606 283° West 374 430 17,000 1,500 Climbing Cleveland Center
Sun 05:42:58 PM 43.2794 -76.9100 283° West 395 455 18,500 1,600 Climbing Cleveland Center
Sun 05:43:58 PM 43.3008 -77.0600 281° West 405 466 20,200 1,550 Climbing Cleveland Center
Sun 05:44:58 PM 43.3097 -77.2194 274° West 415 478 21,600 1,650 Climbing Cleveland Center
Sun 05:45:58 PM 43.3058 -77.3794 268° West 415 478 23,500 1,850 Climbing Cleveland Center
Sun 05:46:58 PM 43.3036 -77.5308 269° West 420 483 25,300 1,650 Climbing Cleveland Center
Sun 05:47:58 PM 43.2969 -77.6794 267° West 415 478 26,800 1,300 Climbing Cleveland Center
Sun 05:48:58 PM 43.2944 -77.8336 269° West 410 472 27,900 1,000 Climbing Cleveland Center
Sun 05:49:58 PM 43.2897 -77.9906 268° West 410 472 28,800 850 Climbing Cleveland Center
Sun 05:50:58 PM 43.2828 -78.1508 267° West 410 472 29,600 800 Climbing Cleveland Center
Sun 05:51:58 PM 43.2800 -78.3161 269° West 421 484 30,400 1,050 Climbing Cleveland Center
Sun 05:52:58 PM 43.2747 -78.4789 268° West 427 491 31,700 1,100 Climbing Cleveland Center
Sun 05:53:58 PM 43.2694 -78.6558 268° West 427 491 32,600 2,150 Climbing Cleveland Center
Sun 05:54:58 PM 43.2658 -78.8214 268° West 427 491 36,000 1,557 Climbing Cleveland Center
Sun 05:56:09 PM 43.2500 -78.9500 260° West 390 449 36,000  Level Toronto Center
Sun 05:57:09 PM 43.2333 -79.1000 261° West 380 437 36,000  Level Toronto Center
Sun 05:58:09 PM 43.2333 -79.2667 270° West 400 460 36,000  Level Toronto Center
Sun 05:59:09 PM 43.2333 -79.4333 270° West 410 472 36,000  Level Toronto Center
Sun 06:00:09 PM 43.2167 -79.5667 260° West 430 495 36,000  Level Toronto Center
Sun 06:01:09 PM 43.2167 -79.7500 270° West 430 495 36,000  Level Toronto Center
Sun 06:02:09 PM 43.2000 -79.9000 261° West 440 506 36,000  Level Toronto Center
Sun 06:03:09 PM 43.2000 -80.0833 270° West 440 506 36,000  Level Toronto Center
Sun 06:04:09 PM 43.1833 -80.2500 262° West 440 506 36,000  Level Toronto Center
Sun 06:05:09 PM 43.1833 -80.4167 270° West 440 506 36,000  Level Toronto Center
Sun 06:06:09 PM 43.1667 -80.6000 263° West 440 506 36,000  Level Toronto Center
Sun 06:07:09 PM 43.1667 -80.7333 270° West 430 495 36,000  Level Toronto Center
Sun 06:08:09 PM 43.1333 -80.9167 256° West 430 495 36,000  Level Toronto Center
Sun 06:09:09 PM 43.1333 -81.0667 270° West 430 495 36,000  Level Toronto Center
Sun 06:10:10 PM 43.1333 -81.2333 270° West 430 495 36,000  Level Toronto Center
Sun 06:11:10 PM 43.1167 -81.4000 262° West 430 495 36,000  Level Toronto Center
Sun 06:12:10 PM 43.1167 -81.5500 270° West 430 495 36,000  Level Toronto Center
Sun 06:13:09 PM 43.1000 -81.7167 262° West 430 495 36,000  Level Toronto Center
Sun 06:14:09 PM 43.1000 -81.8667 270° West 430 495 36,000  Level Toronto Center
Sun 06:15:09 PM 43.0667 -82.0333 255° West 430 495 36,000  Level Toronto Center
Sun 06:16:09 PM 43.0667 -82.2167 270° West 430 495 36,000  Level Toronto Center
Sun 06:17:09 PM 43.0667 -82.3667 270° West 430 495 36,000  Level Toronto Center
Sun 06:18:09 PM 43.0500 -82.5000 260° West 430 495 36,000  Level Toronto Center
Sun 06:19:09 PM 43.0333 -82.6833 263° West 430 495 36,000  Level Toronto Center
Sun 06:19:46 PM 43.0394 -82.7761 275° West 432 497 36,000  Level Cleveland Center
Sun 06:20:46 PM 43.0258 -82.9403 264° West 432 497 36,000  Level Cleveland Center
Sun 06:21:46 PM 43.0161 -83.1047 265° West 437 503 36,000 -300 Level Cleveland Center
Sun 06:22:46 PM 43.0019 -83.2689 263° West 437 503 35,400 -800 Descending Cleveland Center
Sun 06:23:46 PM 42.9897 -83.4358 264° West 444 511 34,400 -750 Descending Cleveland Center
Sun 06:24:46 PM 42.9769 -83.6139 264° West 455 524 33,900 -750 Descending Cleveland Center
Sun 06:25:46 PM 42.9639 -83.7864 264° West 462 532 32,900 -950 Descending Cleveland Center
Sun 06:26:46 PM 42.9444 -83.9586 261° West 467 537 32,000 -450 Descending Cleveland Center
Sun 06:27:46 PM 42.9286 -84.1364 263° West 467 537 32,000  Level Cleveland Center
Sun 06:28:46 PM 42.9108 -84.3056 262° West 467 537 32,000  Level Cleveland Center
Sun 06:29:17 PM 42.9006 -84.4139 263° West 466 536 32,000  Level Chicago Center
Sun 06:30:19 PM 42.8833 -84.5925 263° West 474 545 32,000  Level Chicago Center
Sun 06:31:21 PM 42.8642 -84.7692 262° West 473 544 32,000  Level Chicago Center
Sun 06:32:23 PM 42.8472 -84.9378 262° West 455 524 32,000  Level Chicago Center
Sun 06:33:25 PM 42.8297 -85.1022 262° West 442 509 32,000 -48 Level Chicago Center
Sun 06:34:27 PM 42.8106 -85.2717 261° West 450 518 31,900 -960 Descending Chicago Center
Sun 06:35:30 PM 42.7919 -85.4483 262° West 466 536 30,000 -2,112 Descending Chicago Center
Sun 06:36:32 PM 42.7583 -85.6553 258° West 465 535 27,500 -2,226 Descending Chicago Center
Sun 06:37:34 PM 42.7281 -85.8242 256° West 459 528 25,400 -2,081 Descending Chicago Center
Sun 06:38:36 PM 42.6972 -85.9836 255° West 442 509 23,200 -2,081 Descending Chicago Center
Sun 06:39:38 PM 42.6706 -86.1361 257° West 421 484 21,100 -1,548 Descending Chicago Center
Sun 06:40:40 PM 42.6425 -86.2847 256° West 409 471 20,000 -919 Descending Chicago Center
Sun 06:41:42 PM 42.6147 -86.4286 255° West 396 456 19,200 -1,452 Descending Chicago Center
Sun 06:42:44 PM 42.5878 -86.5736 256° West 397 457 17,000 -2,226 Descending Chicago Center
Sun 06:43:46 PM 42.5575 -86.7414 256° West 383 441 14,600 -2,129 Descending Chicago Center
Sun 06:44:48 PM 42.5228 -86.8700 250° West 365 420 12,600 -1,935 Descending Chicago Center
Sun 06:45:50 PM 42.4883 -86.9953 250° West 357 411 10,600 -1,306 Descending Chicago Center
Sun 06:46:52 PM 42.4558 -87.1056 248° West 322 371 9,900 -774 Descending Chicago Center
Sun 06:47:54 PM 42.4283 -87.2047 249° West 287 330 9,000 -581 Descending Chicago Center
Sun 06:48:56 PM 42.3919 -87.2975 242° Southwest 283 326 8,700 -823 Descending Chicago Center
Sun 06:49:58 PM 42.3494 -87.4019 241° Southwest 283 326 7,300 -823 Descending Chicago Center
Sun 06:51:00 PM 42.3136 -87.4961 243° Southwest 283 326 7,000 -145 Descending Chicago Center
Sun 06:52:02 PM 42.2792 -87.5803 241° Southwest 263 303 7,000 -97 Level Chicago Center
Sun 06:53:04 PM 42.2203 -87.6514 222° Southwest 240 276 6,800 -871 Descending Chicago Center
Sun 06:54:06 PM 42.1692 -87.7081 219° Southwest 240 276 5,200 -1,403 Descending Chicago Center
Sun 06:55:08 PM 42.1222 -87.7589 219° Southwest 226 260 3,900 -1,113 Descending Chicago Center
Sun 06:56:10 PM 42.0814 -87.8050 220° Southwest 209 241 2,900 -968 Descending Chicago Center

Login

Don't have an account? Register now (free) for customized features, flight alerts, and more!